createdAt,value
2023-05-19T00:00:15.013Z,13.15
2023-05-19T00:03:05.335Z,9.30
2023-05-19T00:05:34.785Z,11.20
2023-05-19T00:08:04.523Z,12.90
2023-05-19T00:10:33.895Z,12.45
2023-05-19T00:13:03.029Z,15.32
2023-05-19T00:15:32.546Z,12.07
2023-05-19T00:18:01.235Z,10.95
2023-05-19T00:20:31.315Z,12.82
2023-05-19T00:22:59.949Z,12.05
2023-05-19T00:25:28.511Z,13.13
2023-05-19T00:27:58.690Z,12.27
2023-05-19T00:30:27.446Z,11.18
2023-05-19T00:32:56.021Z,12.43
2023-05-19T00:35:24.706Z,11.88
2023-05-19T00:37:54.424Z,10.00
2023-05-19T00:40:24.173Z,13.30
2023-05-19T00:42:52.496Z,10.40
2023-05-19T00:45:21.154Z,11.38
2023-05-19T00:47:50.127Z,8.85
2023-05-19T00:50:18.682Z,10.82
2023-05-19T00:52:47.286Z,12.15
2023-05-19T00:55:17.453Z,9.90
2023-05-19T00:57:46.411Z,10.52
2023-05-19T01:00:16.472Z,10.70
2023-05-19T01:02:44.798Z,7.57
2023-05-19T01:05:14.258Z,8.20
2023-05-19T01:07:42.747Z,7.97
2023-05-19T01:10:12.382Z,9.02
2023-05-19T01:12:42.294Z,7.40
2023-05-19T01:15:12.152Z,9.38
2023-05-19T01:17:44.999Z,9.50
2023-05-19T01:20:18.575Z,7.75
2023-05-19T01:23:15.758Z,10.25
2023-05-19T01:26:11.440Z,6.43
2023-05-19T01:29:05.224Z,7.82
2023-05-19T01:31:35.511Z,10.30
2023-05-19T01:34:06.059Z,9.25
2023-05-19T01:36:35.368Z,7.55
2023-05-19T01:39:04.523Z,9.25
2023-05-19T01:41:34.326Z,10.30
2023-05-19T01:44:02.722Z,12.13
2023-05-19T01:46:31.502Z,10.75
2023-05-19T01:49:01.705Z,9.95
2023-05-19T01:51:31.654Z,12.55
2023-05-19T01:53:59.980Z,11.70
2023-05-19T01:56:35.931Z,13.48
2023-05-19T01:59:10.441Z,12.77
2023-05-19T02:01:43.279Z,12.48
2023-05-19T02:04:21.622Z,14.05
2023-05-19T02:06:57.292Z,11.63
2023-05-19T02:09:31.108Z,10.18
2023-05-19T02:12:04.388Z,10.50
2023-05-19T02:14:35.638Z,8.93
2023-05-19T02:17:06.146Z,9.48
2023-05-19T02:19:40.688Z,10.05
2023-05-19T02:22:09.901Z,11.98
2023-05-19T02:24:38.159Z,9.85
2023-05-19T02:27:07.736Z,8.05
2023-05-19T02:29:36.083Z,9.65
2023-05-19T02:32:04.982Z,9.90
2023-05-19T02:34:33.930Z,12.00
2023-05-19T02:37:03.877Z,7.68
2023-05-19T02:39:35.440Z,7.88
2023-05-19T02:42:04.148Z,9.90
2023-05-19T02:44:32.704Z,8.57
2023-05-19T02:47:01.302Z,9.30
2023-05-19T02:49:30.948Z,8.95
2023-05-19T02:52:00.310Z,8.80
2023-05-19T02:54:30.391Z,8.93
2023-05-19T02:56:59.533Z,8.45
2023-05-19T02:59:28.119Z,7.80
2023-05-19T03:01:57.814Z,7.32
2023-05-19T03:04:26.301Z,6.65
2023-05-19T03:06:55.261Z,12.85
2023-05-19T03:09:23.583Z,9.00
2023-05-19T03:11:53.464Z,9.95
2023-05-19T03:14:24.103Z,8.25
2023-05-19T03:16:53.269Z,9.32
2023-05-19T03:19:21.814Z,11.65
2023-05-19T03:21:50.918Z,6.80
2023-05-19T03:24:19.384Z,7.65
2023-05-19T03:26:47.931Z,12.55
2023-05-19T03:29:18.226Z,9.35
2023-05-19T03:31:46.933Z,8.87
2023-05-19T03:34:15.362Z,11.30
2023-05-19T03:36:45.276Z,8.77
2023-05-19T03:39:13.605Z,7.70
2023-05-19T03:41:42.440Z,8.10
2023-05-19T03:44:10.705Z,10.10
2023-05-19T03:46:40.850Z,10.70
2023-05-19T03:49:09.181Z,11.02
2023-05-19T03:51:37.804Z,9.88
2023-05-19T03:54:07.006Z,7.70
2023-05-19T03:56:35.612Z,11.32
2023-05-19T03:59:06.421Z,9.38
2023-05-19T04:01:35.107Z,11.30
2023-05-19T04:04:05.233Z,12.00
2023-05-19T04:06:33.993Z,10.90
2023-05-19T04:09:05.077Z,10.75
2023-05-19T04:11:33.877Z,10.20
2023-05-19T04:14:02.232Z,11.88
2023-05-19T04:16:30.959Z,15.35
2023-05-19T04:18:59.464Z,9.85
2023-05-19T04:21:29.543Z,12.48
2023-05-19T04:24:00.229Z,12.40
2023-05-19T04:26:31.227Z,13.00
2023-05-19T04:28:59.584Z,9.75
2023-05-19T04:31:28.855Z,14.13
2023-05-19T04:33:57.382Z,10.60
2023-05-19T04:36:25.991Z,8.85
2023-05-19T04:39:02.379Z,7.97
2023-05-19T04:41:30.961Z,10.75
2023-05-19T04:43:59.530Z,8.88
2023-05-19T04:46:30.158Z,9.00
2023-05-19T04:49:01.353Z,11.27
2023-05-19T04:54:01.621Z,9.68
2023-05-19T04:56:30.323Z,11.55
2023-05-19T04:58:59.275Z,14.80
2023-05-19T05:01:28.056Z,10.90
2023-05-19T05:03:59.273Z,13.50
2023-05-19T05:06:28.647Z,12.07
2023-05-19T05:08:57.885Z,12.93
2023-05-19T05:11:28.526Z,12.55
2023-05-19T05:13:58.318Z,14.25
2023-05-19T05:16:28.418Z,12.50
2023-05-19T05:18:57.578Z,12.50
2023-05-19T05:21:26.845Z,16.45
2023-05-19T05:23:55.930Z,15.32
2023-05-19T05:26:24.928Z,12.98
2023-05-19T05:28:54.746Z,12.68
2023-05-19T05:31:23.871Z,12.57
2023-05-19T05:33:52.310Z,13.57
2023-05-19T05:36:21.322Z,13.98
2023-05-19T05:38:49.626Z,12.45
2023-05-19T05:41:18.189Z,17.02
2023-05-19T05:43:46.493Z,14.25
2023-05-19T05:46:16.423Z,17.40
2023-05-19T05:48:45.644Z,16.98
2023-05-19T05:51:14.811Z,14.88
2023-05-19T05:53:46.437Z,14.45
2023-05-19T05:56:17.121Z,17.00
2023-05-19T05:58:45.322Z,16.30
2023-05-19T06:01:13.902Z,15.27
2023-05-19T06:03:45.205Z,14.10
2023-05-19T06:06:14.553Z,13.40
2023-05-19T06:08:43.230Z,17.42
2023-05-19T06:11:12.104Z,14.52
2023-05-19T06:13:41.551Z,20.63
2023-05-19T06:16:10.375Z,15.85
2023-05-19T06:18:38.725Z,15.35
2023-05-19T06:21:10.409Z,18.85
2023-05-19T06:26:07.239Z,20.00
2023-05-19T06:28:35.635Z,24.17
2023-05-19T06:31:04.756Z,22.95
2023-05-19T06:33:33.088Z,21.92
2023-05-19T06:36:01.765Z,20.55
2023-05-19T06:38:31.876Z,24.08
2023-05-19T06:41:00.472Z,28.30
2023-05-19T06:43:29.198Z,24.40
2023-05-19T06:45:57.879Z,22.48
2023-05-19T06:48:26.505Z,28.05
2023-05-19T06:50:56.154Z,34.88
2023-05-19T06:53:24.511Z,25.17
2023-05-19T06:55:59.829Z,19.42
2023-05-19T06:58:29.003Z,24.38
2023-05-19T07:00:57.658Z,30.33
2023-05-19T07:03:26.216Z,24.63
2023-05-19T07:05:55.142Z,21.10
2023-05-19T07:08:23.432Z,17.20
2023-05-19T07:10:51.992Z,23.75
2023-05-19T07:13:21.563Z,21.10
2023-05-19T07:15:50.124Z,24.15
2023-05-19T07:18:18.363Z,24.50
2023-05-19T07:20:47.105Z,23.13
2023-05-19T07:23:17.220Z,22.15
2023-05-19T07:25:46.142Z,20.23
2023-05-19T07:28:14.338Z,22.90
2023-05-19T07:30:45.055Z,27.88
2023-05-19T07:33:13.300Z,21.08
2023-05-19T07:35:41.962Z,21.52
2023-05-19T07:38:10.382Z,26.67
2023-05-19T07:40:39.237Z,24.10
2023-05-19T07:43:07.413Z,21.95
2023-05-19T07:45:36.233Z,33.72
2023-05-19T07:48:06.122Z,28.67
2023-05-19T07:50:34.814Z,26.50
2023-05-19T07:53:03.307Z,19.08
2023-05-19T07:55:32.084Z,17.70
2023-05-19T07:58:00.656Z,17.77
2023-05-19T08:00:29.368Z,19.55
2023-05-19T08:02:58.207Z,13.70
2023-05-19T08:05:28.318Z,13.00
2023-05-19T08:07:57.726Z,13.32
2023-05-19T08:10:26.366Z,11.52
2023-05-19T08:12:54.896Z,13.35
2023-05-19T08:15:23.653Z,14.27
2023-05-19T08:17:51.904Z,19.15
2023-05-19T08:20:22.741Z,20.02
2023-05-19T08:22:52.450Z,16.43
2023-05-19T08:25:21.478Z,15.50
2023-05-19T08:27:49.732Z,12.73
2023-05-19T08:30:18.295Z,14.40
2023-05-19T08:32:47.249Z,14.27
2023-05-19T08:35:15.971Z,11.55
2023-05-19T08:37:44.245Z,12.13
2023-05-19T08:40:18.390Z,11.55
2023-05-19T08:42:46.917Z,16.95
2023-05-19T08:45:15.578Z,11.05
2023-05-19T08:47:46.988Z,11.15
2023-05-19T08:50:19.092Z,12.60
2023-05-19T08:52:53.432Z,12.43
2023-05-19T08:55:34.312Z,12.00
2023-05-19T08:58:03.257Z,10.63
2023-05-19T09:00:32.669Z,10.60
2023-05-19T09:03:17.501Z,13.13
2023-05-19T09:05:47.596Z,13.48
2023-05-19T09:08:16.284Z,9.77
2023-05-19T09:10:46.362Z,14.38
2023-05-19T09:13:15.091Z,15.50
2023-05-19T09:15:43.616Z,15.05
2023-05-19T09:18:13.128Z,10.23
2023-05-19T09:20:43.487Z,11.73
2023-05-19T09:23:14.927Z,8.25
2023-05-19T09:25:52.044Z,9.57
2023-05-19T09:28:27.415Z,12.15
2023-05-19T09:31:03.175Z,9.30
2023-05-19T09:33:32.184Z,14.82
2023-05-19T09:36:01.319Z,10.07
2023-05-19T09:38:29.738Z,13.68
2023-05-19T09:41:01.103Z,13.70
2023-05-19T09:43:30.427Z,9.80
2023-05-19T09:46:01.602Z,9.30
2023-05-19T09:48:30.673Z,11.18
2023-05-19T09:50:59.352Z,10.82
2023-05-19T09:53:27.878Z,10.20
2023-05-19T09:55:58.868Z,9.77
2023-05-19T09:58:32.233Z,12.18
2023-05-19T10:01:01.348Z,11.52
2023-05-19T10:03:29.951Z,9.30
2023-05-19T10:05:59.060Z,9.98
2023-05-19T10:08:30.054Z,12.45
2023-05-19T10:13:28.449Z,9.57
2023-05-19T10:15:59.258Z,12.95
2023-05-19T10:18:29.960Z,8.30
2023-05-19T10:20:59.170Z,9.98
2023-05-19T10:23:27.694Z,10.65
2023-05-19T10:25:57.895Z,13.48
2023-05-19T10:28:32.189Z,13.20
2023-05-19T10:31:01.811Z,9.15
2023-05-19T10:33:53.102Z,10.88
2023-05-19T10:36:35.966Z,12.63
2023-05-19T10:39:08.209Z,10.10
2023-05-19T10:41:43.988Z,13.13
2023-05-19T10:44:24.822Z,19.05
2023-05-19T10:46:55.007Z,21.10
2023-05-19T10:51:54.315Z,9.73
2023-05-19T10:54:40.921Z,11.77
2023-05-19T10:57:10.044Z,10.63
2023-05-19T10:59:40.040Z,9.27
2023-05-19T11:02:10.052Z,11.40
2023-05-19T11:04:49.499Z,11.05
2023-05-19T11:07:21.818Z,12.13
2023-05-19T11:09:52.679Z,10.43
2023-05-19T11:12:24.721Z,10.13
2023-05-19T11:14:56.126Z,12.07
2023-05-19T11:17:27.553Z,11.57
2023-05-19T11:19:57.314Z,11.02
2023-05-19T11:22:27.048Z,10.00
2023-05-19T11:24:56.661Z,8.80
2023-05-19T11:27:27.974Z,8.48
2023-05-19T11:29:59.467Z,8.38
2023-05-19T11:32:29.997Z,14.77
2023-05-19T11:34:59.430Z,10.43
2023-05-19T11:37:29.048Z,9.50
2023-05-19T11:39:57.357Z,9.90
2023-05-19T11:42:26.021Z,7.20
2023-05-19T11:44:57.845Z,10.07
2023-05-19T11:47:26.701Z,12.45
2023-05-19T11:49:56.892Z,9.27
2023-05-19T11:52:27.579Z,9.32
2023-05-19T11:54:56.952Z,8.27
2023-05-19T11:57:25.842Z,9.70
2023-05-19T11:59:56.839Z,9.00
2023-05-19T12:02:28.003Z,9.43
2023-05-19T12:04:56.924Z,9.90
2023-05-19T12:07:26.606Z,8.48
2023-05-19T12:09:56.560Z,7.65
2023-05-19T12:12:25.271Z,6.93
2023-05-19T12:14:54.015Z,11.05
2023-05-19T12:17:24.315Z,8.45
2023-05-19T12:19:54.439Z,9.77
2023-05-19T12:22:23.139Z,11.23
2023-05-19T12:24:52.827Z,12.20
2023-05-19T12:27:24.489Z,9.75
2023-05-19T12:32:25.626Z,10.07
2023-05-19T12:34:57.214Z,7.70
2023-05-19T12:37:30.261Z,8.65
2023-05-19T12:39:58.682Z,10.65
2023-05-19T12:42:31.375Z,8.85
2023-05-19T12:45:03.144Z,9.85
2023-05-19T12:47:34.939Z,10.60
2023-05-19T12:50:06.042Z,10.20
2023-05-19T12:52:37.413Z,9.65
2023-05-19T12:55:07.913Z,8.82
2023-05-19T12:57:36.946Z,9.50
2023-05-19T13:00:08.615Z,8.32
2023-05-19T13:02:38.384Z,8.77
2023-05-19T13:05:09.339Z,11.40
2023-05-19T13:07:37.889Z,10.05
2023-05-19T13:10:07.111Z,9.88
2023-05-19T13:12:35.997Z,9.27
2023-05-19T13:15:04.932Z,8.38
2023-05-19T13:17:34.913Z,11.40
2023-05-19T13:20:03.922Z,8.55
2023-05-19T13:22:34.237Z,10.15
2023-05-19T13:25:02.787Z,9.60
2023-05-19T13:27:31.413Z,7.35
2023-05-19T13:29:59.979Z,8.65
2023-05-19T13:32:28.659Z,9.50
2023-05-19T13:34:57.801Z,9.57
2023-05-19T13:37:28.458Z,10.35
2023-05-19T13:39:58.696Z,9.57
2023-05-19T13:42:27.407Z,11.27
2023-05-19T13:44:56.443Z,10.45
2023-05-19T13:47:25.658Z,9.75
2023-05-19T13:49:54.901Z,10.10
2023-05-19T13:52:23.529Z,7.90
2023-05-19T13:54:54.767Z,8.75
2023-05-19T13:57:25.713Z,8.18
2023-05-19T14:00:02.822Z,10.95
2023-05-19T14:02:32.872Z,10.25
2023-05-19T14:05:01.328Z,10.13
2023-05-19T14:07:30.563Z,8.73
2023-05-19T14:09:59.063Z,8.75
2023-05-19T14:12:41.375Z,10.57
2023-05-19T14:15:16.079Z,12.82
2023-05-19T14:17:44.855Z,13.95
2023-05-19T14:20:13.844Z,16.17
2023-05-19T14:22:42.384Z,18.50
2023-05-19T14:25:11.152Z,12.40
2023-05-19T14:27:41.325Z,12.63
2023-05-19T14:30:10.823Z,12.13
2023-05-19T14:32:39.672Z,12.43
2023-05-19T14:35:09.132Z,12.32
2023-05-19T14:37:37.786Z,11.65
2023-05-19T14:40:07.025Z,15.40
2023-05-19T14:42:35.587Z,13.77
2023-05-19T14:45:05.700Z,10.88
2023-05-19T14:47:34.380Z,24.70
2023-05-19T14:50:02.764Z,18.92
2023-05-19T14:52:31.659Z,18.02
2023-05-19T14:55:01.164Z,14.38
2023-05-19T14:57:29.876Z,12.05
2023-05-19T14:59:58.461Z,12.73
2023-05-19T15:02:29.791Z,12.02
2023-05-19T15:04:58.245Z,16.27
2023-05-19T15:07:27.630Z,16.23
2023-05-19T15:09:56.096Z,13.50
2023-05-19T15:12:24.946Z,15.38
2023-05-19T15:14:53.612Z,29.75
2023-05-19T15:17:22.327Z,17.33
2023-05-19T15:19:52.322Z,12.43
2023-05-19T15:22:21.303Z,14.20
2023-05-19T15:24:49.829Z,23.60
2023-05-19T15:27:18.501Z,19.45
2023-05-19T15:29:46.875Z,24.83
2023-05-19T15:32:15.451Z,30.92
2023-05-19T15:34:44.209Z,21.75
2023-05-19T15:37:14.257Z,16.60
2023-05-19T15:39:42.725Z,14.93
2023-05-19T15:42:11.378Z,12.48
2023-05-19T15:44:39.711Z,17.65
2023-05-19T15:47:08.255Z,23.30
2023-05-19T15:49:36.670Z,20.65
2023-05-19T15:52:05.628Z,29.10
2023-05-19T15:54:35.854Z,15.60
2023-05-19T15:57:04.553Z,22.55
2023-05-19T15:59:32.883Z,23.15
2023-05-19T16:02:01.949Z,14.23
2023-05-19T16:04:30.378Z,17.70
2023-05-19T16:06:59.548Z,23.67
2023-05-19T16:09:27.917Z,22.67
2023-05-19T16:12:01.220Z,28.05
2023-05-19T16:14:31.167Z,29.63
2023-05-19T16:17:01.532Z,26.45
2023-05-19T16:19:29.902Z,26.27
2023-05-19T16:21:58.491Z,39.95
2023-05-19T16:24:28.567Z,31.05
2023-05-19T16:26:57.138Z,24.58
2023-05-19T16:29:26.902Z,21.83
2023-05-19T16:31:55.430Z,20.00
2023-05-19T16:34:23.890Z,19.67
2023-05-19T16:36:52.625Z,19.63
2023-05-19T16:39:21.101Z,16.98
2023-05-19T16:41:50.504Z,22.15
2023-05-19T16:44:19.055Z,27.75
2023-05-19T16:46:48.951Z,36.35
2023-05-19T16:49:17.329Z,31.80
2023-05-19T16:51:47.532Z,48.95
2023-05-19T16:54:17.304Z,39.42
2023-05-19T16:56:46.284Z,41.40
2023-05-19T16:59:14.727Z,32.17
2023-05-19T17:01:43.280Z,31.25
2023-05-19T17:04:13.341Z,38.40
2023-05-19T17:06:42.026Z,21.88
2023-05-19T17:09:10.219Z,22.92
2023-05-19T17:11:39.058Z,30.25
2023-05-19T17:14:09.272Z,26.55
2023-05-19T17:16:38.301Z,21.50
2023-05-19T17:19:06.841Z,24.20
2023-05-19T17:21:36.786Z,21.60
2023-05-19T17:24:05.274Z,21.83
2023-05-19T17:26:34.111Z,21.80
2023-05-19T17:29:02.280Z,15.65
2023-05-19T17:31:30.958Z,18.05
2023-05-19T17:33:59.333Z,18.10
2023-05-19T17:36:28.036Z,19.30
2023-05-19T17:38:57.900Z,22.20
2023-05-19T17:41:26.490Z,24.38
2023-05-19T17:43:54.954Z,20.30
2023-05-19T17:46:23.843Z,21.98
2023-05-19T17:48:52.209Z,19.40
2023-05-19T17:51:21.700Z,18.30
2023-05-19T17:53:50.502Z,19.13
2023-05-19T17:56:22.255Z,17.30
2023-05-19T17:58:51.282Z,20.88
2023-05-19T18:01:23.953Z,23.42
2023-05-19T18:04:04.794Z,22.40
2023-05-19T18:06:48.234Z,19.20
2023-05-19T18:09:18.537Z,19.27
2023-05-19T18:11:52.110Z,20.83
2023-05-19T18:14:41.954Z,17.25
2023-05-19T18:17:27.335Z,16.05
2023-05-19T18:19:59.075Z,19.08
2023-05-19T18:22:27.765Z,15.73
2023-05-19T18:24:57.633Z,19.40
2023-05-19T18:27:33.799Z,18.27
2023-05-19T18:30:02.177Z,17.23
2023-05-19T18:32:50.437Z,20.52
2023-05-19T18:35:20.816Z,21.25
2023-05-19T18:37:49.593Z,21.67
2023-05-19T18:40:18.151Z,19.45
2023-05-19T18:42:48.345Z,19.98
2023-05-19T18:45:17.134Z,23.27
2023-05-19T18:47:45.897Z,22.30
2023-05-19T18:50:14.612Z,21.33
2023-05-19T18:52:43.775Z,23.67
2023-05-19T18:55:12.166Z,19.13
2023-05-19T18:57:42.119Z,23.25
2023-05-19T19:00:13.638Z,21.80
2023-05-19T19:02:42.420Z,22.42
2023-05-19T19:05:11.283Z,23.58
2023-05-19T19:07:41.414Z,24.45
2023-05-19T19:10:28.680Z,21.33
2023-05-19T19:13:08.399Z,23.73
2023-05-19T19:15:45.049Z,23.35
2023-05-19T19:18:14.262Z,24.13
2023-05-19T19:20:42.996Z,22.58
2023-05-19T19:23:11.806Z,27.05
2023-05-19T19:25:40.247Z,22.85
2023-05-19T19:28:10.740Z,19.55
2023-05-19T19:30:47.751Z,21.15
2023-05-19T19:33:19.307Z,23.50
2023-05-19T19:36:00.765Z,22.88
2023-05-19T19:38:29.718Z,24.67
2023-05-19T19:40:58.194Z,24.55
2023-05-19T19:43:27.132Z,27.55
2023-05-19T19:46:01.830Z,26.55
2023-05-19T19:48:30.641Z,25.48
2023-05-19T19:50:59.176Z,28.20
2023-05-19T19:53:28.255Z,25.20
2023-05-19T19:56:00.110Z,26.20
2023-05-19T19:58:29.543Z,25.15
2023-05-19T20:00:58.839Z,23.05
2023-05-19T20:03:29.638Z,24.60
2023-05-19T20:05:58.135Z,21.17
2023-05-19T20:08:27.326Z,24.35
2023-05-19T20:10:56.010Z,22.85
2023-05-19T20:13:25.601Z,21.02
2023-05-19T20:15:54.241Z,20.95
2023-05-19T20:18:23.353Z,24.55
2023-05-19T20:20:53.070Z,22.05
2023-05-19T20:23:21.385Z,24.95
2023-05-19T20:26:02.897Z,23.00
2023-05-19T20:28:38.145Z,22.25
2023-05-19T20:31:07.139Z,22.80
2023-05-19T20:33:35.646Z,19.42
2023-05-19T20:36:06.507Z,23.23
2023-05-19T20:38:35.054Z,19.95
2023-05-19T20:41:03.963Z,19.80
2023-05-19T20:43:33.250Z,19.40
2023-05-19T20:46:03.863Z,22.90
2023-05-19T20:48:32.493Z,18.05
2023-05-19T20:51:00.945Z,20.95
2023-05-19T20:53:31.335Z,21.52
2023-05-19T20:55:59.868Z,21.42
2023-05-19T20:58:30.389Z,22.17
2023-05-19T21:00:58.770Z,24.55
2023-05-19T21:03:28.862Z,23.75
2023-05-19T21:05:57.694Z,21.23
2023-05-19T21:08:26.609Z,20.48
2023-05-19T21:10:56.296Z,22.90
2023-05-19T21:13:24.706Z,20.15
2023-05-19T21:15:53.581Z,22.88
2023-05-19T21:18:21.987Z,22.38
2023-05-19T21:20:50.707Z,22.05
2023-05-19T21:23:18.967Z,24.60
2023-05-19T21:25:47.901Z,22.60
2023-05-19T21:28:17.525Z,23.80
2023-05-19T21:30:49.215Z,23.88
2023-05-19T21:35:46.514Z,21.95
2023-05-19T21:38:23.238Z,25.42
2023-05-19T21:40:52.543Z,22.02
2023-05-19T21:43:22.654Z,24.92
2023-05-19T21:45:51.746Z,22.13
2023-05-19T21:48:20.172Z,26.88
2023-05-19T21:50:54.160Z,28.98
2023-05-19T21:53:22.539Z,25.77
2023-05-19T21:55:50.993Z,30.35
2023-05-19T21:58:19.489Z,29.83
2023-05-19T22:00:51.300Z,30.90
2023-05-19T22:03:20.026Z,26.00
2023-05-19T22:05:50.256Z,27.13
2023-05-19T22:08:19.201Z,28.27
2023-05-19T22:10:50.683Z,30.45
2023-05-19T22:13:19.167Z,29.77
2023-05-19T22:15:47.968Z,27.42
2023-05-19T22:18:18.073Z,27.38
2023-05-19T22:20:46.852Z,26.85
2023-05-19T22:23:16.015Z,26.65
2023-05-19T22:25:44.753Z,26.80
2023-05-19T22:28:13.333Z,33.85
2023-05-19T22:30:42.867Z,27.52
2023-05-19T22:33:12.515Z,31.48
2023-05-19T22:35:43.315Z,29.80
2023-05-19T22:38:11.894Z,27.77
2023-05-19T22:40:40.929Z,31.88
2023-05-19T22:43:09.311Z,28.88
2023-05-19T22:45:38.555Z,32.88
2023-05-19T22:48:07.854Z,31.63
2023-05-19T22:50:36.457Z,29.67
2023-05-19T22:53:06.553Z,32.22
2023-05-19T22:55:35.500Z,33.47
2023-05-19T22:58:04.326Z,29.17
2023-05-19T23:00:33.322Z,31.58
2023-05-19T23:03:01.847Z,34.03
2023-05-19T23:05:30.754Z,35.65
2023-05-19T23:07:59.143Z,31.38
2023-05-19T23:10:29.253Z,30.35
2023-05-19T23:12:57.746Z,29.05
2023-05-19T23:15:26.186Z,37.55
2023-05-19T23:17:54.726Z,35.83
2023-05-19T23:20:23.525Z,33.17
2023-05-19T23:22:51.921Z,34.58
2023-05-19T23:25:20.655Z,33.60
2023-05-19T23:27:50.264Z,41.28
2023-05-19T23:30:19.530Z,44.35
2023-05-19T23:32:47.793Z,35.75
2023-05-19T23:35:18.402Z,39.85
2023-05-19T23:37:46.914Z,37.00
2023-05-19T23:40:16.028Z,36.30
2023-05-19T23:42:45.076Z,39.15
2023-05-19T23:45:14.999Z,39.50
2023-05-19T23:47:44.102Z,33.67
2023-05-19T23:50:13.139Z,34.95
2023-05-19T23:52:41.522Z,34.90
2023-05-19T23:55:12.761Z,39.38
2023-05-19T23:57:41.092Z,34.33
